Latest Weather Observations for Melbourne Airport

IDV60901

Issued at 6:51 pm EDT Wednesday 22 January 2020 (issued every 10 minutes, with the page automatically refreshed every 10 minutes)

About weather observations | Map of Melbourne area stations | Latest observations for Melbourne area | Other Formats
Station Details ID: 086282 Name: MELBOURNE AIRPORT Lat: -37.67 Lon: 144.83 Height: 113.4 m
Data from the previous 72 hours. | See also: Recent months at Melbourne Airport
Date/Time
EDT
Temp
°C
App
Temp
°C
Dew
Point
°C
Rel
Hum
%
Delta-T
°C
Wind Press
QNH
hPa
Press
MSL
hPa
Rain since
9am
mm
Dir  Spd
km/h
Gust
km/h
Spd
kts
Gust
kts
22/06:31pm 29.3 18.7 6.7 24 12.1 N 52 72 28 39 996.1 995.7 0.0
22/06:30pm 29.4 18.9 7.5 25 11.9 N 52 69 28 37 996.2 995.8 0.0
22/06:00pm 29.9 20.3 6.3 22 12.7 N 46 65 25 35 996.7 996.3 0.0
22/05:30pm 30.1 20.3 5.4 21 13.0 NNW 46 78 25 42 996.7 996.3 0.0
22/05:15pm 30.4 21.1 5.0 20 13.3 N 43 65 23 35 996.9 996.5 0.0
22/05:14pm 30.4 21.0 4.7 19 13.4 N 43 57 23 31 996.8 996.4 0.0
22/05:00pm 30.2 20.8 5.6 21 13.1 N 44 61 24 33 997.0 996.6 0.0
22/04:30pm 30.2 18.9 5.6 21 13.0 N 54 72 29 39 997.2 996.8 0.0
22/04:00pm 30.1 18.7 5.1 20 13.2 N 54 76 29 41 997.5 997.1 0.0
22/03:30pm 30.4 19.7 4.7 19 13.4 NNW 50 85 27 46 998.1 997.7 0.0
22/03:00pm 31.0 19.3 5.5 20 13.6 NNW 56 80 30 43 999.0 998.6 0.0
22/02:30pm 31.0 20.5 5.5 20 13.5 N 50 69 27 37 999.3 998.9 0.0
22/02:10pm 32.3 22.1 7.1 21 13.8 N 50 70 27 38 999.1 998.7 0.0
22/02:00pm 31.3 20.8 7.3 22 13.2 N 52 67 28 36 999.6 999.2 0.0
22/01:30pm 30.8 20.4 7.6 23 12.7 N 52 74 28 40 1000.2 999.8 0.0
22/01:00pm 29.2 19.0 8.7 27 11.4 N 52 74 28 40 1000.5 1000.0 0.0
22/12:35pm 27.7 19.0 10.0 33 9.9 N 46 65 25 35 1001.0 1000.6 0.0
22/12:30pm 27.7 19.4 10.0 33 9.9 N 44 61 24 33 1001.1 1000.7 0.0
22/12:00pm 27.6 17.6 10.6 34 9.7 N 54 72 29 39 1001.1 1000.7 0.0
22/11:30am 27.9 18.7 10.8 34 9.7 N 50 74 27 40 1001.2 1000.8 0.0
22/11:00am 26.3 16.1 12.0 41 8.3 N 57 78 31 42 1001.4 1001.0 0.0
22/10:30am 24.5 14.0 12.4 46 7.0 N 59 78 32 42 1002.0 1001.6 0.0
22/10:06am 24.4 15.1 13.1 49 6.6 N 54 74 29 40 1002.5 1002.1 0.0
22/10:00am 23.5 14.1 12.8 51 6.2 N 54 70 29 38 1002.5 1002.1 0.0
22/09:42am 22.6 13.9 12.7 53 5.7 N 50 70 27 38 1002.6 1002.2 0.0
22/09:30am 21.9 12.8 12.5 55 5.4 N 52 65 28 35 1002.8 1002.4 0.0
22/09:12am 20.8 12.3 12.1 57 4.9 N 48 67 26 36 1003.2 1002.8 0.0
22/09:00am 20.8 11.5 11.7 56 5.1 N 52 67 28 36 1003.5 1003.1 0.0
22/08:41am 20.6 10.8 11.5 56 5.1 N 54 72 29 39 1003.3 1002.9 0.0
22/08:30am 20.7 11.6 11.4 55 5.2 N 50 67 27 36 1003.6 1003.2 0.0
22/08:00am 20.7 11.5 10.9 53 5.4 N 50 65 27 35 1003.7 1003.3 0.0
22/07:30am 19.6 11.5 10.2 54 5.1 N 43 57 23 31 1003.7 1003.3 0.0
22/07:00am 18.5 11.1 9.7 56 4.7 N 39 50 21 27 1004.0 1003.6 0.0
22/06:30am 18.1 10.4 8.5 53 5.0 N 39 65 21 35 1004.4 1004.0 0.0
22/06:25am 17.9 10.2 8.5 54 4.9 N 39 65 21 35 1004.4 1004.0 0.0
22/06:00am 17.6 11.1 8.3 54 4.8 N 32 41 17 22 1004.5 1004.1 0.0
22/05:30am 17.1 11.8 8.6 57 4.4 N 26 32 14 17 1004.5 1004.1 0.0
22/05:00am 17.2 12.4 9.0 58 4.3 N 24 32 13 17 1004.6 1004.2 0.0
22/04:30am 17.4 13.6 9.0 58 4.4 NNE 19 26 10 14 1004.7 1004.3 0.0
22/04:00am 16.5 13.9 9.5 63 3.7 N 13 22 7 12 1005.0 1004.6 0.0
22/03:30am 15.5 12.8 10.4 71 2.7 N 15 19 8 10 1005.2 1004.8 0.0
22/03:00am 16.6 12.9 9.6 63 3.7 N 19 26 10 14 1005.4 1005.0 0.0
22/02:30am 15.5 11.6 10.8 73 2.5 N 22 26 12 14 1005.6 1005.2 0.0
22/02:00am 13.3 11.0 11.6 89 0.9 N 15 19 8 10 1006.0 1005.6 0.0
22/01:30am 13.4 11.5 11.7 89 0.9 NNE 13 15 7 8 1006.3 1005.9 0.0
22/01:00am 13.8 12.2 11.4 85 1.3 N 11 13 6 7 1006.7 1006.3 0.0
22/12:30am 14.1 12.9 11.5 84 1.4 NNW 9 11 5 6 1007.0 1006.6 0.0
22/12:00am 14.1 12.5 11.7 85 1.3 N 11 13 6 7 1007.3 1006.9 0.0
 
Date/Time
EDT
Temp
°C
App
Temp
°C
Dew
Point
°C
Rel
Hum
%
Delta-T
°C
Wind Press
QNH
hPa
Press
MSL
hPa
Rain since
9am
mm
Dir  Spd
km/h
Gust
km/h
Spd
kts
Gust
kts
21/11:30pm 14.1 13.3 11.7 85 1.3 NW 7 7 4 4 1007.7 1007.3 0.0
21/11:00pm 14.1 12.9 11.7 85 1.3 W 9 11 5 6 1008.2 1007.9 0.0
21/10:30pm 14.3 13.2 11.9 85 1.3 W 9 11 5 6 1008.3 1008.0 0.0
21/10:00pm 14.7 13.3 12.1 84 1.4 WSW 11 13 6 7 1008.2 1007.9 0.0
21/09:30pm 15.2 14.7 11.9 81 1.8 SW 6 7 3 4 1007.9 1007.6 0.0
21/09:00pm 15.9 15.2 11.9 77 2.2 SSW 7 9 4 5 1007.9 1007.6 0.0
21/08:30pm 16.9 14.8 11.2 69 3.1 S 13 17 7 9 1007.9 1007.6 0.0
21/08:00pm 17.8 14.9 11.0 64 3.7 S 17 22 9 12 1007.9 1007.6 0.0
21/07:30pm 18.5 15.0 11.0 61 4.1 S 20 28 11 15 1007.7 1007.3 0.0
21/07:00pm 19.4 15.4 10.6 56 4.8 S 22 28 12 15 1007.4 1007.0 0.0
21/06:30pm 19.9 15.6 10.6 55 5.1 SSE 24 30 13 16 1007.2 1006.8 0.0
21/06:00pm 20.3 15.6 10.6 53 5.3 S 26 32 14 17 1007.1 1006.7 0.0
21/05:30pm 20.9 16.6 10.7 52 5.6 S 24 33 13 18 1007.1 1006.7 0.0
21/05:00pm 22.6 17.6 11.0 48 6.5 S 28 35 15 19 1007.2 1006.8 0.0
21/04:30pm 23.3 20.3 9.1 40 7.7 SSE 15 24 8 13 1007.1 1006.7 0.0
21/04:00pm 23.3 20.9 10.1 43 7.3 SSE 13 20 7 11 1007.6 1007.2 0.0
21/03:30pm 22.7 20.5 9.5 43 7.2 SSE 11 17 6 9 1007.9 1007.6 0.0
21/03:00pm 22.6 20.3 9.1 42 7.3 SSW 11 19 6 10 1008.2 1007.9 0.0
21/02:30pm 21.8 18.7 8.9 43 6.9 SW 15 24 8 13 1008.5 1008.2 0.0
21/02:00pm 21.0 18.5 8.3 44 6.7 SW 11 20 6 11 1009.1 1008.8 0.0
21/01:30pm 20.3 18.5 8.0 45 6.4 S 7 19 4 10 1009.5 1009.1 0.0
21/01:00pm 19.7 17.5 7.9 46 6.1 S 9 20 5 11 1010.1 1009.7 0.0
21/12:30pm 19.0 16.2 8.7 51 5.4 W 13 19 7 10 1010.6 1010.2 0.0
21/12:00pm 18.4 15.5 8.1 51 5.3 W 13 20 7 11 1010.8 1010.4 0.0
21/11:30am 18.2 16.4 9.5 57 4.6 SW 9 19 5 10 1010.9 1010.5 0.0
21/11:00am 16.7 13.4 8.1 57 4.4 WSW 15 20 8 11 1011.3 1010.9 0.0
21/10:30am 16.2 13.4 8.4 60 4.0 SW 13 22 7 12 1011.4 1011.0 0.0
21/10:00am 15.9 13.8 8.2 60 3.9 SW 9 15 5 8 1011.4 1011.0 0.0
21/09:30am 15.8 13.4 8.6 62 3.7 SW 11 17 6 9 1011.3 1010.9 0.0
21/09:00am 15.5 12.6 9.6 68 3.1 WSW 15 17 8 9 1011.3 1010.9 25.2
21/08:30am 14.0 10.8 10.0 77 2.1 WSW 17 20 9 11 1010.9 1010.5 25.2
21/08:00am 13.8 10.7 10.4 80 1.8 WSW 17 22 9 12 1010.6 1010.2 25.2
21/07:30am 13.4 10.2 10.1 80 1.7 WSW 17 22 9 12 1010.3 1009.9 25.2
21/07:00am 13.4 9.8 10.5 82 1.5 WSW 20 26 11 14 1009.9 1009.5 25.2
21/06:30am 13.4 9.4 10.3 81 1.6 WSW 22 28 12 15 1009.6 1009.2 25.2
21/06:00am 13.4 9.8 10.7 84 1.4 WSW 20 28 11 15 1009.4 1009.0 25.2
21/05:30am 13.5 10.2 10.9 84 1.4 WSW 19 24 10 13 1008.9 1008.6 25.2
21/05:00am 13.6 10.3 11.0 84 1.4 WSW 19 26 10 14 1008.6 1008.3 25.2
21/04:30am 13.6 10.8 11.2 85 1.3 WSW 17 22 9 12 1008.4 1008.1 25.2
21/04:00am 13.6 10.4 11.2 85 1.3 WSW 19 26 10 14 1008.2 1007.9 25.2
21/03:30am 13.6 10.4 11.4 86 1.2 SW 19 28 10 15 1008.1 1007.8 25.2
21/03:00am 13.6 10.3 11.6 88 1.1 SW 20 30 11 16 1008.3 1008.0 25.2
21/02:30am 13.6 10.0 11.7 88 1.0 SW 22 30 12 16 1008.3 1008.0 25.2
21/02:00am 13.8 10.2 12.0 89 1.0 SW 22 30 12 16 1008.4 1008.1 25.2
21/01:30am 13.8 10.7 12.3 91 0.8 SW 20 28 11 15 1008.6 1008.3 25.2
21/01:00am 14.1 11.4 13.0 93 0.6 SW 19 26 10 14 1008.6 1008.3 25.2
21/12:30am 14.2 11.4 13.1 93 0.6 SW 20 30 11 16 1008.7 1008.4 25.2
21/12:15am 14.3 11.5 13.2 93 0.6 SW 20 30 11 16 1008.6 1008.3 25.2
21/12:00am 14.2 11.1 13.3 94 0.5 SW 22 32 12 17 1008.6 1008.3 25.0
 
Date/Time
EDT
Temp
°C
App
Temp
°C
Dew
Point
°C
Rel
Hum
%
Delta-T
°C
Wind Press
QNH
hPa
Press
MSL
hPa
Rain since
9am
mm
Dir  Spd
km/h
Gust
km/h
Spd
kts
Gust
kts
20/11:30pm 14.2 9.5 13.1 93 0.6 SW 30 37 16 20 1008.5 1008.2 25.0
20/11:00pm 14.3 10.4 13.2 93 0.6 SW 26 32 14 17 1008.4 1008.1 25.0
20/10:40pm 14.2 10.8 13.7 97 0.3 SW 24 32 13 17 1008.3 1008.0 25.0
20/10:30pm 14.1 10.4 13.9 99 0.1 SW 26 35 14 19 1008.2 1007.9 25.0
20/10:00pm 14.4 10.0 14.0 97 0.2 SW 30 37 16 20 1008.0 1007.7 24.4
20/09:30pm 14.6 11.1 14.4 99 0.1 SW 26 41 14 22 1007.5 1007.1 24.2
20/09:00pm 14.7 10.4 14.3 97 0.2 SW 30 37 16 20 1007.2 1006.8 23.8
20/08:30pm 14.8 10.5 14.5 98 0.2 SW 30 37 16 20 1006.9 1006.5 20.4
20/08:00pm 15.0 10.4 14.7 98 0.2 SW 32 39 17 21 1006.4 1006.0 18.8
20/07:43pm 15.7 12.5 15.4 98 0.2 SSW 26 37 14 20 1006.1 1005.7 18.4
20/07:30pm 15.7 12.5 15.2 97 0.3 SSW 26 35 14 19 1005.9 1005.5 17.8
20/07:00pm 16.0 13.3 15.7 98 0.2 SSW 24 32 13 17 1005.6 1005.2 16.0
20/06:30pm 16.2 13.1 15.7 97 0.3 S 26 37 14 20 1005.1 1004.7 14.4
20/06:00pm 16.1 13.4 15.6 97 0.3 S 24 35 13 19 1004.9 1004.5 14.0
20/05:30pm 16.2 13.1 15.7 97 0.3 S 26 37 14 20 1004.8 1004.4 11.4
20/05:19pm 16.3 12.4 15.6 96 0.4 S 30 41 16 22 1004.7 1004.3 10.8
20/05:00pm 16.4 13.0 15.7 96 0.4 SSW 28 37 15 20 1004.3 1003.9 10.2
20/04:45pm 16.6 14.1 16.1 97 0.3 SSW 24 32 13 17 1004.2 1003.8 9.4
20/04:30pm 16.6 13.3 16.1 97 0.3 SSW 28 39 15 21 1004.1 1003.7 9.2
20/04:00pm 16.8 13.1 16.1 96 0.4 S 30 35 16 19 1004.0 1003.6 3.2
20/03:56pm 16.8 13.2 16.3 97 0.3 S 30 39 16 21 1004.1 1003.7 2.0
20/03:52pm 17.0 13.4 16.2 95 0.5 S 30 39 16 21 1004.1 1003.7 1.0
20/03:44pm 17.4 14.1 16.1 92 0.8 S 28 39 15 21 1004.0 1003.6 0.0
20/03:30pm 18.4 14.9 15.4 83 1.8 S 28 39 15 21 1004.0 1003.6 0.0
20/03:00pm 18.8 14.5 15.3 80 2.1 S 32 41 17 22 1003.9 1003.5 0.0
20/02:30pm 19.3 15.2 16.0 81 2.0 S 32 41 17 22 1003.9 1003.5 0.0
20/02:00pm 20.2 16.2 16.1 77 2.5 S 32 41 17 22 1003.9 1003.5 0.0
20/01:30pm 20.8 16.7 16.5 76 2.6 S 33 41 18 22 1004.0 1003.6 0.0
20/01:00pm 21.3 18.1 16.4 73 3.0 S 28 39 15 21 1004.0 1003.6 0.0
20/12:30pm 21.8 19.2 16.8 73 3.1 S 26 35 14 19 1004.0 1003.6 0.0
20/12:00pm 22.2 20.7 16.3 69 3.6 S 19 26 10 14 1004.5 1004.1 0.0
20/11:30am 21.5 20.1 16.6 73 3.0 S 19 24 10 13 1004.7 1004.3 0.0
20/11:00am 20.7 19.3 16.6 77 2.5 S 19 26 10 14 1004.8 1004.4 0.0
20/10:30am 20.9 19.3 16.6 76 2.6 S 20 30 11 16 1004.5 1004.1 0.0
20/10:00am 20.6 19.0 16.5 77 2.5 S 20 28 11 15 1004.3 1003.9 0.0
20/09:30am 20.2 19.3 16.8 81 2.1 S 17 19 9 10 1004.5 1004.1 0.0
20/09:00am 20.7 20.1 17.5 82 2.0 S 17 20 9 11 1004.6 1004.2 0.2
20/08:30am 19.5 19.2 17.4 88 1.3 SSW 15 19 8 10 1004.7 1004.3 0.2
20/08:20am 19.3 19.3 17.3 88 1.2 SSW 13 15 7 8 1004.6 1004.2 0.2
20/08:00am 18.8 19.3 17.5 92 0.8 S 11 15 6 8 1004.7 1004.3 0.2
20/07:30am 18.8 19.2 17.3 91 0.9 S 11 13 6 7 1004.5 1004.1 0.2
20/07:00am 18.6 19.5 17.5 93 0.7 SSW 9 11 5 6 1004.5 1004.1 0.2
20/06:34am 18.4 19.2 17.4 94 0.6 SW 9 13 5 7 1004.6 1004.2 0.2
20/06:30am 18.4 18.9 17.4 94 0.6 SW 11 13 6 7 1004.5 1004.1 0.2
20/06:11am 18.2 18.7 17.4 95 0.5 SW 11 13 6 7 1004.3 1003.9 0.2
20/06:00am 18.4 18.9 17.4 94 0.6 SW 11 13 6 7 1004.3 1003.9 0.2
20/05:30am 18.4 19.6 17.4 94 0.6 WSW 7 9 4 5 1004.2 1003.8 0.2
20/05:00am 18.2 18.6 17.2 94 0.6 SW 11 15 6 8 1004.0 1003.6 0.2
20/04:30am 18.1 17.7 17.1 94 0.6 WSW 15 20 8 11 1004.2 1003.8 0.2
20/04:00am 18.0 17.5 17.0 94 0.6 WSW 15 19 8 10 1004.4 1004.0 0.2
20/03:30am 17.7 17.6 16.9 95 0.5 WSW 13 17 7 9 1004.7 1004.3 0.2
20/03:00am 17.5 16.7 16.2 92 0.8 WSW 15 17 8 9 1004.8 1004.4 0.2
20/02:46am 17.4 16.6 16.2 93 0.7 WSW 15 17 8 9 1004.9 1004.5 0.2
20/02:30am 17.5 16.3 16.0 91 0.9 WSW 17 19 9 10 1005.0 1004.6 0.2
20/02:00am 17.3 17.6 16.1 93 0.7 WSW 9 13 5 7 1005.3 1004.9 0.2
20/01:30am 17.0 16.6 15.1 88 1.1 W 11 13 6 7 1005.3 1004.9 0.2
20/01:00am 17.4 18.6 14.8 85 1.5 SSW 2 7 1 4 1005.4 1005.0 0.2
20/12:30am 18.2 19.3 14.6 79 2.1 S 2 7 1 4 1005.3 1004.9 0.2
20/12:00am 18.2 18.0 14.8 80 2.0 S 9 11 5 6 1005.2 1004.8 0.2
 
Date/Time
EDT
Temp
°C
App
Temp
°C
Dew
Point
°C
Rel
Hum
%
Delta-T
°C
Wind Press
QNH
hPa
Press
MSL
hPa
Rain since
9am
mm
Dir  Spd
km/h
Gust
km/h
Spd
kts
Gust
kts
19/11:30pm 18.7 18.1 14.6 77 2.4 S 11 15 6 8 1005.2 1004.8 0.2
19/11:00pm 18.8 17.8 14.7 77 2.4 SSW 13 15 7 8 1005.1 1004.7 0.2
19/10:30pm 18.6 18.0 14.5 77 2.4 S 11 13 6 7 1004.6 1004.2 0.2
19/10:00pm 19.9 18.7 12.9 64 4.0 SSE 11 15 6 8 1004.5 1004.1 0.2
19/09:30pm 21.2 18.3 12.4 57 5.0 NE 19 26 10 14 1004.5 1004.1 0.2
19/09:00pm 20.7 16.6 12.8 60 4.5 ENE 26 33 14 18 1004.3 1003.9 0.2
19/08:30pm 20.4 16.3 13.9 66 3.8 ENE 28 35 15 19 1004.4 1004.0 0.2
19/08:00pm 20.2 15.9 15.5 74 2.8 ENE 32 39 17 21 1004.4 1004.0 0.2
19/07:30pm 20.5 17.7 17.3 82 2.0 ENE 28 33 15 18 1004.3 1003.9 0.2
19/07:10pm 21.6 20.9 17.4 77 2.6 NE 17 20 9 11 1004.5 1004.1 0.0
19/07:00pm 22.0 21.0 17.5 75 2.8 ENE 19 24 10 13 1004.4 1004.0 0.0

Latest Capital City Observations: Canberra | Sydney | Melbourne | Brisbane | Adelaide | Perth | Hobart | Darwin

Other formats

Comma delimited format used in spreadsheet applications
http://www.bom.gov.au/fwo/IDV60901/IDV60901.94866.axf

JavaScript Object Notation format (JSON) in row-major order
http://www.bom.gov.au/fwo/IDV60901/IDV60901.94866.json

Data quality

Most of these data are generated automatically and are frequently updated. Quality checks on data are not normally performed. It is possible for incorrect values to appear. Refer to information at About Latest Weather Observations and please check the disclaimer before using these data.